createdAt,value
2016-12-16T00:00:54.818Z,0.29
2016-12-16T00:01:54.472Z,0.32
2016-12-16T00:02:54.433Z,0.29
2016-12-16T00:03:54.691Z,0.33
2016-12-16T00:04:54.647Z,0.29
2016-12-16T00:05:54.317Z,0.24
2016-12-16T00:06:54.261Z,0.28
2016-12-16T00:07:54.519Z,0.23
2016-12-16T00:08:54.195Z,0.17
2016-12-16T00:09:54.431Z,0.21
2016-12-16T00:10:54.117Z,0.24
2016-12-16T00:11:54.047Z,0.18
2016-12-16T00:12:54.004Z,0.26
2016-12-16T00:13:53.973Z,0.23
2016-12-16T00:14:53.921Z,0.28
2016-12-16T00:15:54.177Z,0.2
2016-12-16T00:16:53.835Z,0.21
2016-12-16T00:17:54.093Z,0.17
2016-12-16T00:18:53.748Z,0.13
2016-12-16T00:19:53.706Z,0.24
2016-12-16T00:20:53.359Z,0.18
2016-12-16T00:21:53.933Z,0.23
2016-12-16T00:22:53.875Z,0.18
2016-12-16T00:23:53.534Z,0.21
2016-12-16T00:24:53.493Z,0.17
2016-12-16T00:25:53.753Z,0.2
2016-12-16T00:26:53.404Z,0.18
2016-12-16T00:27:53.363Z,0.17
2016-12-16T00:28:53.317Z,0.15
2016-12-16T00:29:53.278Z,0.23
2016-12-16T00:30:53.240Z,0.26
2016-12-16T00:31:52.886Z,0.21
2016-12-16T00:32:53.452Z,0.18
2016-12-16T00:33:53.411Z,0.17
2016-12-16T00:34:53.366Z,0.18
2016-12-16T00:35:53.326Z,0.18
2016-12-16T00:36:53.279Z,0.2
2016-12-16T00:37:52.934Z,0.04
2016-12-16T00:38:53.192Z,0.13
2016-12-16T00:39:53.148Z,0.11
2016-12-16T00:40:52.804Z,0.11
2016-12-16T00:41:53.062Z,0.11
2016-12-16T00:42:53.019Z,0.23
2016-12-16T00:43:52.976Z,0.28
2016-12-16T00:44:52.937Z,0.23
2016-12-16T00:45:52.894Z,0.31
2016-12-16T00:46:52.547Z,0.26
2016-12-16T00:47:52.804Z,0.28
2016-12-16T00:48:52.459Z,0.29
2016-12-16T00:49:52.421Z,0.29
2016-12-16T00:50:52.377Z,0.32
2016-12-16T00:51:52.637Z,0.21
2016-12-16T00:52:52.301Z,0.29
2016-12-16T00:53:51.945Z,0.29
2016-12-16T00:54:51.906Z,0.26
2016-12-16T00:55:52.166Z,0.29
2016-12-16T00:56:52.424Z,0.31
2016-12-16T00:57:52.406Z,0.28
2016-12-16T00:58:52.343Z,0.32
2016-12-16T00:59:51.991Z,0.15
2016-12-16T01:00:51.957Z,0.29
2016-12-16T01:01:51.905Z,0.32
2016-12-16T01:02:52.166Z,0.23
2016-12-16T01:03:51.520Z,0.24
2016-12-16T01:04:52.086Z,0.2
2016-12-16T01:05:52.038Z,0.29
2016-12-16T01:06:51.998Z,0.17
2016-12-16T01:07:51.952Z,0.29
2016-12-16T01:08:51.909Z,0.24
2016-12-16T01:09:51.873Z,0.28
2016-12-16T01:10:51.536Z,0.29
2016-12-16T01:11:51.784Z,0.28
2016-12-16T01:12:51.743Z,0.31
2016-12-16T01:13:51.696Z,0.26
2016-12-16T01:14:51.356Z,0.28
2016-12-16T01:15:51.013Z,0.28
2016-12-16T01:16:51.573Z,0.28
2016-12-16T01:17:51.226Z,0.21
2016-12-16T01:18:51.485Z,0.29
2016-12-16T01:19:51.442Z,0.29
2016-12-16T01:20:51.401Z,0.26
2016-12-16T01:21:51.358Z,0.28
2016-12-16T01:22:51.013Z,0.38
2016-12-16T01:23:51.271Z,0.28
2016-12-16T01:24:50.643Z,0.38
2016-12-16T01:25:50.881Z,0.39
2016-12-16T01:26:51.149Z,0.28
2016-12-16T01:27:51.103Z,0.29
2016-12-16T01:28:51.058Z,0.41
2016-12-16T01:29:51.018Z,0.28
2016-12-16T01:30:50.974Z,0.26
2016-12-16T01:31:50.927Z,0.32
2016-12-16T01:32:50.892Z,0.33
2016-12-16T01:33:50.853Z,0.35
2016-12-16T01:34:50.805Z,0.26
2016-12-16T01:35:50.760Z,0.24
2016-12-16T01:36:50.715Z,0.18
2016-12-16T01:37:50.679Z,0.31
2016-12-16T01:38:50.631Z,0.21
2016-12-16T01:39:50.589Z,0.28
2016-12-16T01:40:50.266Z,0.29
2016-12-16T01:41:50.505Z,0.28
2016-12-16T01:42:50.460Z,0.26
2016-12-16T01:43:50.423Z,0.29
2016-12-16T01:44:50.377Z,0.29
2016-12-16T01:45:50.032Z,0.29
2016-12-16T01:46:50.287Z,0.24
2016-12-16T01:47:50.248Z,0.41
2016-12-16T01:48:50.205Z,0.23
2016-12-16T01:49:49.861Z,0.32
2016-12-16T01:50:49.819Z,0.29
2016-12-16T01:51:50.074Z,0.28
2016-12-16T01:52:49.730Z,0.24
2016-12-16T01:53:49.695Z,0.28
2016-12-16T01:54:49.949Z,0.23
2016-12-16T01:55:49.903Z,0.28
2016-12-16T01:56:49.560Z,0.28
2016-12-16T01:57:49.517Z,0.21
2016-12-16T01:58:49.777Z,0.21
2016-12-16T01:59:49.731Z,0.21
2016-12-16T02:00:49.693Z,0.18
2016-12-16T02:01:49.656Z,0.23
2016-12-16T02:02:49.602Z,0.11
2016-12-16T02:03:49.261Z,0.15
2016-12-16T02:04:49.519Z,0.23
2016-12-16T02:05:49.478Z,0.11
2016-12-16T02:06:49.133Z,0.11
2016-12-16T02:07:49.392Z,0.2
2016-12-16T02:08:49.055Z,0.04
2016-12-16T02:09:49.009Z,0.11
2016-12-16T02:10:49.261Z,0.04
2016-12-16T02:11:49.221Z,0.11
2016-12-16T02:12:48.879Z,0.15
2016-12-16T02:13:49.134Z,0.1
2016-12-16T02:14:48.792Z,0.11
2016-12-16T02:15:49.046Z,0.03
2016-12-16T02:16:49.008Z,0.07
2016-12-16T02:17:48.664Z,0
2016-12-16T02:18:48.919Z,0.08
2016-12-16T02:19:48.879Z,0.08
2016-12-16T02:20:48.837Z,-0.01
2016-12-16T02:21:48.795Z,0
2016-12-16T02:22:48.750Z,0.07
2016-12-16T02:23:48.405Z,-0.04
2016-12-16T02:24:48.663Z,0.02
2016-12-16T02:25:48.620Z,-0.01
2016-12-16T02:26:48.275Z,0
2016-12-16T02:27:48.535Z,0.04
2016-12-16T02:28:48.492Z,0
2016-12-16T02:29:48.146Z,-0.05
2016-12-16T02:30:48.102Z,-0.08
2016-12-16T02:31:48.370Z,-0.03
2016-12-16T02:32:48.015Z,-0.05
2016-12-16T02:33:48.275Z,-0.05
2016-12-16T02:34:48.234Z,-0.04
2016-12-16T02:35:47.890Z,-0.01
2016-12-16T02:36:48.149Z,-0.05
2016-12-16T02:37:47.805Z,-0.01
2016-12-16T02:38:48.060Z,-0.08
2016-12-16T02:39:48.017Z,-0.01
2016-12-16T02:40:47.706Z,0
2016-12-16T02:41:47.630Z,-0.05
2016-12-16T02:42:47.292Z,-0.08
2016-12-16T02:43:47.546Z,-0.15
2016-12-16T02:44:47.805Z,-0.05
2016-12-16T02:45:47.458Z,-0.08
2016-12-16T02:46:47.415Z,-0.04
2016-12-16T02:47:47.369Z,-0.1
2016-12-16T02:48:47.335Z,-0.15
2016-12-16T02:49:47.286Z,-0.15
2016-12-16T02:50:46.944Z,-0.15
2016-12-16T02:51:47.501Z,-0.04
2016-12-16T02:52:47.459Z,-0.1
2016-12-16T02:53:47.118Z,-0.1
2016-12-16T02:54:47.370Z,-0.08
2016-12-16T02:55:47.330Z,-0.15
2016-12-16T02:56:46.685Z,-0.07
2016-12-16T02:57:46.945Z,-0.15
2016-12-16T02:58:47.200Z,-0.18
2016-12-16T02:59:47.157Z,-0.14
2016-12-16T03:00:47.116Z,-0.15
2016-12-16T03:01:46.769Z,-0.19
2016-12-16T03:02:47.055Z,-0.21
2016-12-16T03:03:46.986Z,-0.21
2016-12-16T03:04:46.639Z,-0.23
2016-12-16T03:05:46.899Z,-0.28
2016-12-16T03:06:46.557Z,-0.28
2016-12-16T03:07:46.512Z,-0.25
2016-12-16T03:08:46.775Z,-0.26
2016-12-16T03:09:46.727Z,-0.23
2016-12-16T03:10:46.687Z,-0.37
2016-12-16T03:11:46.644Z,-0.28
2016-12-16T03:12:46.298Z,-0.4
2016-12-16T03:13:46.556Z,-0.36
2016-12-16T03:14:46.208Z,-0.36
2016-12-16T03:15:45.866Z,-0.33
2016-12-16T03:16:46.122Z,-0.4
2016-12-16T03:17:46.079Z,-0.34
2016-12-16T03:18:46.367Z,-0.4
2016-12-16T03:19:45.994Z,-0.39
2016-12-16T03:20:45.956Z,-0.36
2016-12-16T03:21:46.209Z,-0.36
2016-12-16T03:22:45.869Z,-0.36
2016-12-16T03:23:45.820Z,-0.42
2016-12-16T03:24:46.082Z,-0.34
2016-12-16T03:25:46.034Z,-0.42
2016-12-16T03:26:45.995Z,-0.46
2016-12-16T03:27:45.655Z,-0.47
2016-12-16T03:28:45.602Z,-0.43
2016-12-16T03:29:45.260Z,-0.4
2016-12-16T03:30:45.823Z,-0.46
2016-12-16T03:31:45.479Z,-0.42
2016-12-16T03:32:45.732Z,-0.46
2016-12-16T03:33:45.692Z,-0.55
2016-12-16T03:34:45.648Z,-0.52
2016-12-16T03:35:45.604Z,-0.49
2016-12-16T03:36:45.562Z,-0.47
2016-12-16T03:37:45.518Z,-0.46
2016-12-16T03:38:45.474Z,-0.52
2016-12-16T03:39:45.128Z,-0.42
2016-12-16T03:40:45.086Z,-0.54
2016-12-16T03:41:45.340Z,-0.52
2016-12-16T03:42:45.000Z,-0.6
2016-12-16T03:43:44.954Z,-0.6
2016-12-16T03:44:45.221Z,-0.57
2016-12-16T03:45:45.176Z,-0.58
2016-12-16T03:46:45.130Z,-0.55
2016-12-16T03:47:44.788Z,-0.62
2016-12-16T03:48:45.042Z,-0.58
2016-12-16T03:49:44.696Z,-0.62
2016-12-16T03:50:44.654Z,-0.7
2016-12-16T03:51:44.917Z,-0.58
2016-12-16T03:52:44.864Z,-0.52
2016-12-16T03:53:44.522Z,-0.6
2016-12-16T03:54:44.814Z,-0.6
2016-12-16T03:55:44.735Z,-0.6
2016-12-16T03:56:44.693Z,-0.65
2016-12-16T03:57:44.648Z,-0.55
2016-12-16T03:58:44.612Z,-0.6
2016-12-16T03:59:44.563Z,-0.6
2016-12-16T04:00:43.916Z,-0.65
2016-12-16T04:01:44.476Z,-0.67
2016-12-16T04:02:44.431Z,-0.65
2016-12-16T04:03:44.388Z,-0.58
2016-12-16T04:04:44.348Z,-0.62
2016-12-16T04:05:44.306Z,-0.55
2016-12-16T04:06:44.260Z,-0.7
2016-12-16T04:07:43.915Z,-0.58
2016-12-16T04:08:43.873Z,-0.58
2016-12-16T04:09:44.129Z,-0.75
2016-12-16T04:10:43.787Z,-0.61
2016-12-16T04:11:43.768Z,-0.73
2016-12-16T04:12:44.002Z,-0.58
2016-12-16T04:13:43.653Z,-0.62
2016-12-16T04:14:43.911Z,-0.7
2016-12-16T04:15:43.873Z,-0.75
2016-12-16T04:16:43.822Z,-0.64
2016-12-16T04:17:43.478Z,-0.7
2016-12-16T04:18:43.742Z,-0.67
2016-12-16T04:19:43.394Z,-0.79
2016-12-16T04:20:43.351Z,-0.76
2016-12-16T04:21:43.604Z,-0.78
2016-12-16T04:22:43.565Z,-0.78
2016-12-16T04:23:42.920Z,-0.73
2016-12-16T04:24:43.479Z,-0.75
2016-12-16T04:25:43.435Z,-0.75
2016-12-16T04:26:43.389Z,-0.75
2016-12-16T04:27:43.349Z,-0.78
2016-12-16T04:28:43.305Z,-0.76
2016-12-16T04:29:42.959Z,-0.79
2016-12-16T04:30:42.910Z,-0.82
2016-12-16T04:31:42.872Z,-0.73
2016-12-16T04:32:43.129Z,-0.79
2016-12-16T04:33:43.087Z,-0.79
2016-12-16T04:34:43.045Z,-0.75
2016-12-16T04:35:42.696Z,-0.78
2016-12-16T04:36:42.958Z,-0.76
2016-12-16T04:37:42.919Z,-0.69
2016-12-16T04:38:42.567Z,-0.75
2016-12-16T04:39:42.523Z,-0.78
2016-12-16T04:40:42.480Z,-0.7
2016-12-16T04:41:42.437Z,-0.82
2016-12-16T04:42:42.394Z,-0.8
2016-12-16T04:43:42.351Z,-0.79
2016-12-16T04:44:42.308Z,-0.82
2016-12-16T04:45:42.261Z,-0.82
2016-12-16T04:46:42.520Z,-0.79
2016-12-16T04:47:41.871Z,-0.73
2016-12-16T04:48:42.437Z,-0.72
2016-12-16T04:49:42.390Z,-0.78
2016-12-16T04:50:42.354Z,-0.72
2016-12-16T04:51:42.302Z,-0.73
2016-12-16T04:52:42.262Z,-0.82
2016-12-16T04:53:41.912Z,-0.82
2016-12-16T04:54:42.178Z,-0.76
2016-12-16T04:55:41.829Z,-0.82
2016-12-16T04:56:41.790Z,-0.8
2016-12-16T04:57:42.042Z,-0.72
2016-12-16T04:58:42.033Z,-0.73
2016-12-16T04:59:41.959Z,-0.78
2016-12-16T05:00:41.608Z,-0.73
2016-12-16T05:01:41.874Z,-0.76
2016-12-16T05:02:41.224Z,-0.79
2016-12-16T05:03:41.785Z,-0.8
2016-12-16T05:04:41.433Z,-0.79
2016-12-16T05:05:41.697Z,-0.76
2016-12-16T05:06:41.349Z,-0.86
2016-12-16T05:07:41.606Z,-0.75
2016-12-16T05:08:41.596Z,-0.75
2016-12-16T05:09:41.523Z,-0.79
2016-12-16T05:10:41.177Z,-0.76
2016-12-16T05:11:40.827Z,-0.79
2016-12-16T05:12:40.801Z,-0.79
2016-12-16T05:13:41.346Z,-0.75
2016-12-16T05:14:40.998Z,-0.78
2016-12-16T05:15:40.959Z,-0.76
2016-12-16T05:16:40.912Z,-0.78
2016-12-16T05:17:40.870Z,-0.78
2016-12-16T05:18:40.826Z,-0.8
2016-12-16T05:19:41.090Z,-0.82
2016-12-16T05:20:41.044Z,-0.78
2016-12-16T05:21:40.394Z,-0.83
2016-12-16T05:22:40.955Z,-0.82
2016-12-16T05:23:40.610Z,-0.83
2016-12-16T05:24:40.565Z,-0.89
2016-12-16T05:25:41.028Z,-0.89
2016-12-16T05:26:40.780Z,-0.83
2016-12-16T05:27:40.740Z,-0.86
2016-12-16T05:28:40.393Z,-0.85
2016-12-16T05:29:40.652Z,-0.89
2016-12-16T05:30:40.303Z,-0.94
2016-12-16T05:31:40.562Z,-0.89
2016-12-16T05:32:40.217Z,-0.86
2016-12-16T05:33:40.475Z,-0.83
2016-12-16T05:34:40.431Z,-0.86
2016-12-16T05:35:40.399Z,-0.94
2016-12-16T05:36:40.045Z,-0.83
2016-12-16T05:37:40.003Z,-0.83
2016-12-16T05:38:40.268Z,-0.89
2016-12-16T05:39:40.217Z,-0.8
2016-12-16T05:40:40.169Z,-0.86
2016-12-16T05:41:40.126Z,-0.8
2016-12-16T05:42:40.080Z,-0.85
2016-12-16T05:43:40.044Z,-0.82
2016-12-16T05:44:39.999Z,-0.79
2016-12-16T05:45:39.953Z,-0.85
2016-12-16T05:46:39.912Z,-0.85
2016-12-16T05:47:39.867Z,-0.86
2016-12-16T05:48:39.824Z,-0.85
2016-12-16T05:49:39.780Z,-0.83
2016-12-16T05:50:39.461Z,-0.83
2016-12-16T05:51:39.696Z,-0.85
2016-12-16T05:52:39.647Z,-0.82
2016-12-16T05:53:39.302Z,-0.83
2016-12-16T05:54:39.566Z,-0.79
2016-12-16T05:55:39.217Z,-0.82
2016-12-16T05:56:39.473Z,-0.73
2016-12-16T05:57:39.434Z,-0.73
2016-12-16T05:58:39.085Z,-0.75
2016-12-16T05:59:39.043Z,-0.73
2016-12-16T06:00:39.302Z,-0.69
2016-12-16T06:01:39.264Z,-0.69
2016-12-16T06:02:38.913Z,-0.79
2016-12-16T06:03:39.174Z,-0.72
2016-12-16T06:04:39.126Z,-0.76
2016-12-16T06:05:39.088Z,-0.75
2016-12-16T06:06:39.040Z,-0.73
2016-12-16T06:07:38.996Z,-0.76
2016-12-16T06:08:38.650Z,-0.72
2016-12-16T06:09:38.911Z,-0.67
2016-12-16T06:10:38.870Z,-0.61
2016-12-16T06:11:38.521Z,-0.7
2016-12-16T06:12:38.175Z,-0.73
2016-12-16T06:13:38.435Z,-0.75
2016-12-16T06:14:38.395Z,-0.83
2016-12-16T06:15:38.654Z,-0.8
2016-12-16T06:16:38.003Z,-0.78
2016-12-16T06:17:38.570Z,-0.83
2016-12-16T06:18:38.520Z,-0.78
2016-12-16T06:19:38.482Z,-0.82
2016-12-16T06:20:38.138Z,-0.75
2016-12-16T06:21:38.089Z,-0.76
2016-12-16T06:22:38.046Z,-0.75
2016-12-16T06:23:38.003Z,-0.76
2016-12-16T06:24:38.260Z,-0.64
2016-12-16T06:25:38.231Z,-0.69
2016-12-16T06:26:37.872Z,-0.6
2016-12-16T06:27:38.128Z,-0.64
2016-12-16T06:28:37.787Z,-0.64
2016-12-16T06:29:37.743Z,-0.62
2016-12-16T06:30:37.700Z,-0.69
2016-12-16T06:31:37.959Z,-0.72
2016-12-16T06:32:37.911Z,-0.61
2016-12-16T06:33:37.883Z,-0.7
2016-12-16T06:34:37.823Z,-0.6
2016-12-16T06:35:37.782Z,-0.62
2016-12-16T06:36:37.737Z,-0.67
2016-12-16T06:37:37.692Z,-0.62
2016-12-16T06:38:37.651Z,-0.7
2016-12-16T06:39:37.613Z,-0.64
2016-12-16T06:40:37.264Z,-0.52
2016-12-16T06:41:37.525Z,-0.6
2016-12-16T06:42:37.479Z,-0.58
2016-12-16T06:43:37.136Z,-0.67
2016-12-16T06:44:37.392Z,-0.62
2016-12-16T06:45:37.351Z,-0.62
2016-12-16T06:46:37.003Z,-0.58
2016-12-16T06:47:36.958Z,-0.61
2016-12-16T06:48:37.225Z,-0.58
2016-12-16T06:49:36.872Z,-0.57
2016-12-16T06:50:37.135Z,-0.65
2016-12-16T06:51:36.495Z,-0.55
2016-12-16T06:52:36.749Z,-0.46
2016-12-16T06:53:36.999Z,-0.54
2016-12-16T06:54:36.962Z,-0.58
2016-12-16T06:55:36.914Z,-0.55
2016-12-16T06:56:36.873Z,-0.55
2016-12-16T06:57:36.832Z,-0.61
2016-12-16T06:58:36.791Z,-0.47
2016-12-16T06:59:36.740Z,-0.58
2016-12-16T07:00:36.732Z,-0.58
2016-12-16T07:01:36.656Z,-0.51
2016-12-16T07:02:36.617Z,-0.44
2016-12-16T07:03:36.570Z,-0.39
2016-12-16T07:04:36.232Z,-0.39
2016-12-16T07:05:36.484Z,-0.43
2016-12-16T07:06:36.468Z,-0.37
2016-12-16T07:07:36.396Z,-0.43
2016-12-16T07:08:35.750Z,-0.4
2016-12-16T07:09:35.707Z,-0.39
2016-12-16T07:10:35.966Z,-0.51
2016-12-16T07:11:36.227Z,-0.51
2016-12-16T07:12:36.182Z,-0.51
2016-12-16T07:13:35.837Z,-0.42
2016-12-16T07:14:36.092Z,-0.42
2016-12-16T07:15:36.054Z,-0.44
2016-12-16T07:16:35.405Z,-0.4
2016-12-16T07:17:35.967Z,-0.36
2016-12-16T07:18:35.922Z,-0.39
2016-12-16T07:19:35.879Z,-0.36
2016-12-16T07:20:35.836Z,-0.22
2016-12-16T07:21:35.791Z,-0.31
2016-12-16T07:22:35.752Z,-0.19
2016-12-16T07:23:35.706Z,-0.21
2016-12-16T07:24:35.666Z,-0.31
2016-12-16T07:25:35.622Z,-0.22
2016-12-16T07:26:35.278Z,-0.22
2016-12-16T07:27:35.535Z,-0.08
2016-12-16T07:28:35.192Z,-0.21
2016-12-16T07:29:35.452Z,-0.15
2016-12-16T07:30:35.404Z,-0.18
2016-12-16T07:31:34.760Z,-0.21
2016-12-16T07:32:35.023Z,-0.21
2016-12-16T07:33:35.277Z,-0.16
2016-12-16T07:34:35.240Z,-0.16
2016-12-16T07:35:35.198Z,-0.08
2016-12-16T07:36:35.166Z,-0.15
2016-12-16T07:37:34.804Z,-0.16
2016-12-16T07:38:35.071Z,-0.18
2016-12-16T07:39:35.026Z,-0.15
2016-12-16T07:40:34.675Z,-0.11
2016-12-16T07:41:34.937Z,-0.15
2016-12-16T07:42:34.890Z,-0.16
2016-12-16T07:43:34.244Z,-0.14
2016-12-16T07:44:34.505Z,-0.21
2016-12-16T07:45:34.459Z,-0.15
2016-12-16T07:46:34.720Z,-0.21
2016-12-16T07:47:34.677Z,-0.15
2016-12-16T07:48:34.635Z,-0.16
2016-12-16T07:49:34.589Z,-0.16
2016-12-16T07:50:34.248Z,-0.08
2016-12-16T07:51:34.506Z,-0.04
2016-12-16T07:52:34.462Z,-0.07
2016-12-16T07:53:34.115Z,-0.08
2016-12-16T07:54:34.384Z,-0.08
2016-12-16T07:55:33.728Z,-0.03
2016-12-16T07:56:33.986Z,-0.04
2016-12-16T07:57:33.941Z,0
2016-12-16T07:58:34.209Z,-0.01
2016-12-16T07:59:34.164Z,-0.03
2016-12-16T08:00:34.119Z,0.03
2016-12-16T08:01:33.780Z,-0.03
2016-12-16T08:02:34.039Z,-0.01
2016-12-16T08:03:33.689Z,0.03
2016-12-16T08:04:33.947Z,-0.03
2016-12-16T08:05:33.907Z,-0.05
2016-12-16T08:06:33.870Z,0
2016-12-16T08:07:33.820Z,-0.04
2016-12-16T08:08:33.774Z,-0.07
2016-12-16T08:09:33.453Z,-0.05
2016-12-16T08:10:33.689Z,-0.03
2016-12-16T08:11:33.641Z,-0.05
2016-12-16T08:12:33.607Z,-0.01
2016-12-16T08:13:33.558Z,0.04
2016-12-16T08:14:33.214Z,-0.07
2016-12-16T08:15:33.481Z,0
2016-12-16T08:16:33.127Z,-0.03
2016-12-16T08:17:33.389Z,-0.05
2016-12-16T08:18:33.043Z,0.03
2016-12-16T08:19:33.312Z,0.14
2016-12-16T08:20:32.958Z,0
2016-12-16T08:21:32.911Z,0.07
2016-12-16T08:22:33.184Z,0.17
2016-12-16T08:23:32.838Z,0.08
2016-12-16T08:24:33.085Z,0.14
2016-12-16T08:25:33.045Z,0.14
2016-12-16T08:26:32.698Z,0.21
2016-12-16T08:27:32.956Z,0.21
2016-12-16T08:28:32.310Z,0.18
2016-12-16T08:29:32.877Z,0.17
2016-12-16T08:30:32.533Z,0.17
2016-12-16T08:31:32.787Z,0.23
2016-12-16T08:32:32.743Z,0.2
2016-12-16T08:33:32.395Z,0.23
2016-12-16T08:34:32.665Z,0.23
2016-12-16T08:35:32.312Z,0.17
2016-12-16T08:36:32.572Z,0.14
2016-12-16T08:37:31.921Z,0.03
2016-12-16T08:38:32.184Z,0.11
2016-12-16T08:39:32.441Z,0.15
2016-12-16T08:40:32.398Z,0.11
2016-12-16T08:41:32.353Z,0.18
2016-12-16T08:42:32.014Z,0.23
2016-12-16T08:43:31.966Z,0.21
2016-12-16T08:44:32.228Z,0.24
2016-12-16T08:45:31.882Z,0.13
2016-12-16T08:46:32.142Z,0.21
2016-12-16T08:47:31.796Z,0.26
2016-12-16T08:48:31.760Z,0.18
2016-12-16T08:49:31.714Z,0.24
2016-12-16T08:50:31.676Z,0.23
2016-12-16T08:51:31.925Z,0.31
2016-12-16T08:52:31.887Z,0.21
2016-12-16T08:53:31.566Z,0.2
2016-12-16T08:54:31.798Z,0.31
2016-12-16T08:55:31.454Z,0.31
2016-12-16T08:56:31.715Z,0.28
2016-12-16T08:57:31.368Z,0.24
2016-12-16T08:58:31.630Z,0.29
2016-12-16T08:59:31.584Z,0.28
2016-12-16T09:00:31.242Z,0.26
2016-12-16T09:01:31.499Z,0.26
2016-12-16T09:02:31.157Z,0.32
2016-12-16T09:03:31.111Z,0.28
2016-12-16T09:04:31.082Z,0.36
2016-12-16T09:05:31.323Z,0.36
2016-12-16T09:06:30.676Z,0.35
2016-12-16T09:07:30.936Z,0.39
2016-12-16T09:08:30.593Z,0.31
2016-12-16T09:09:31.152Z,0.36
2016-12-16T09:10:30.810Z,0.39
2016-12-16T09:11:30.769Z,0.49
2016-12-16T09:12:30.427Z,0.5
2016-12-16T09:13:30.981Z,0.5
2016-12-16T09:14:30.942Z,0.62
2016-12-16T09:15:30.614Z,0.6
2016-12-16T09:16:30.555Z,0.66
2016-12-16T09:17:30.820Z,0.69
2016-12-16T09:18:30.766Z,0.72
2016-12-16T09:19:30.747Z,0.73
2016-12-16T09:20:30.387Z,0.72
2016-12-16T09:21:30.338Z,0.9
2016-12-16T09:22:30.599Z,0.84
2016-12-16T09:23:30.259Z,0.91
2016-12-16T09:24:30.213Z,0.93
2016-12-16T09:25:30.473Z,0.91
2016-12-16T09:26:30.133Z,0.91
2016-12-16T09:27:29.780Z,1.02
2016-12-16T09:28:30.040Z,1.06
2016-12-16T09:29:30.002Z,1.04
2016-12-16T09:30:29.955Z,1.08
2016-12-16T09:31:30.213Z,1.04
2016-12-16T09:32:30.176Z,0.94
2016-12-16T09:33:30.134Z,0.96
2016-12-16T09:34:30.090Z,0.91
2016-12-16T09:35:30.047Z,0.93
2016-12-16T09:36:29.702Z,0.93
2016-12-16T09:37:29.963Z,0.98
2016-12-16T09:38:29.615Z,0.96
2016-12-16T09:39:29.575Z,1.06
2016-12-16T09:40:29.534Z,0.93
2016-12-16T09:41:29.791Z,0.97
2016-12-16T09:42:29.445Z,0.96
2016-12-16T09:43:29.708Z,0.98
2016-12-16T09:44:29.365Z,1.02
2016-12-16T09:45:29.624Z,1.09
2016-12-16T09:46:29.578Z,1.05
2016-12-16T09:47:29.541Z,1.08
2016-12-16T09:48:29.199Z,1.08
2016-12-16T09:49:29.156Z,1
2016-12-16T09:50:29.106Z,1.02
2016-12-16T09:51:29.067Z,0.88
2016-12-16T09:52:29.326Z,0.9
2016-12-16T09:53:29.287Z,0.9
2016-12-16T09:54:29.245Z,0.93
2016-12-16T09:55:28.900Z,0.9
2016-12-16T09:56:29.158Z,0.94
2016-12-16T09:57:29.111Z,0.91
2016-12-16T09:58:29.071Z,0.91
2016-12-16T09:59:29.030Z,0.94
2016-12-16T10:00:28.985Z,0.84
2016-12-16T10:01:28.941Z,0.76
2016-12-16T10:02:28.597Z,0.84
2016-12-16T10:03:28.558Z,0.83
2016-12-16T10:04:28.815Z,0.79
2016-12-16T10:05:28.477Z,0.73
2016-12-16T10:06:28.738Z,0.88
2016-12-16T10:07:28.690Z,0.87
2016-12-16T10:08:28.349Z,0.78
2016-12-16T10:09:28.003Z,0.79
2016-12-16T10:10:28.561Z,0.87
2016-12-16T10:11:28.216Z,0.9
2016-12-16T10:12:28.475Z,0.9
2016-12-16T10:13:28.436Z,0.91
2016-12-16T10:14:28.094Z,0.96
2016-12-16T10:15:28.354Z,0.91
2016-12-16T10:16:28.308Z,1
2016-12-16T10:17:28.267Z,1.02
2016-12-16T10:18:28.231Z,1.06
2016-12-16T10:19:27.576Z,1.06
2016-12-16T10:20:28.137Z,1.05
2016-12-16T10:21:27.792Z,1.08
2016-12-16T10:22:27.752Z,1.09
2016-12-16T10:23:27.710Z,1.11
2016-12-16T10:24:27.966Z,1.09
2016-12-16T10:25:27.924Z,1.12
2016-12-16T10:26:27.607Z,1.06
2016-12-16T10:27:27.842Z,1.09
2016-12-16T10:28:27.816Z,1.2
2016-12-16T10:29:27.455Z,1.23
2016-12-16T10:30:27.413Z,1.27
2016-12-16T10:31:27.366Z,1.26
2016-12-16T10:32:27.325Z,1.37
2016-12-16T10:33:27.289Z,1.45
2016-12-16T10:34:27.235Z,1.37
2016-12-16T10:35:27.198Z,1.47
2016-12-16T10:36:27.154Z,1.45
2016-12-16T10:37:26.819Z,1.47
2016-12-16T10:38:27.375Z,1.5
2016-12-16T10:39:27.029Z,1.45
2016-12-16T10:40:27.284Z,1.54
2016-12-16T10:41:26.945Z,1.6
2016-12-16T10:42:26.903Z,1.54
2016-12-16T10:43:26.860Z,1.59
2016-12-16T10:44:26.816Z,1.54
2016-12-16T10:45:27.076Z,1.52
2016-12-16T10:46:26.763Z,1.54
2016-12-16T10:47:26.996Z,1.52
2016-12-16T10:48:26.952Z,1.54
2016-12-16T10:49:26.909Z,1.44
2016-12-16T10:50:26.564Z,1.42
2016-12-16T10:51:26.826Z,1.48
2016-12-16T10:52:26.784Z,1.47
2016-12-16T10:53:26.740Z,1.55
2016-12-16T10:54:26.395Z,1.55
2016-12-16T10:55:26.656Z,1.58
2016-12-16T10:56:26.307Z,1.47
2016-12-16T10:57:26.576Z,1.47
2016-12-16T10:58:26.230Z,1.41
2016-12-16T10:59:26.488Z,1.48
2016-12-16T11:00:26.143Z,1.51
2016-12-16T11:01:26.408Z,1.52
2016-12-16T11:02:26.058Z,1.5
2016-12-16T11:03:26.318Z,1.48
2016-12-16T11:04:25.670Z,1.47
2016-12-16T11:05:26.236Z,1.45
2016-12-16T11:06:26.191Z,1.45
2016-12-16T11:07:26.148Z,1.54
2016-12-16T11:08:25.504Z,1.54
2016-12-16T11:09:26.065Z,1.55
2016-12-16T11:10:25.721Z,1.58
2016-12-16T11:11:25.986Z,1.66
2016-12-16T11:12:25.942Z,1.63
2016-12-16T11:13:25.595Z,1.63
2016-12-16T11:14:25.854Z,1.51
2016-12-16T11:15:25.814Z,1.55
2016-12-16T11:16:25.470Z,1.48
2016-12-16T11:17:25.726Z,1.48
2016-12-16T11:18:25.691Z,1.58
2016-12-16T11:19:25.647Z,1.62
2016-12-16T11:20:25.603Z,1.59
2016-12-16T11:21:25.260Z,1.47
2016-12-16T11:22:25.528Z,1.51
2016-12-16T11:23:25.175Z,1.54
2016-12-16T11:24:25.435Z,1.63
2016-12-16T11:25:24.792Z,1.65
2016-12-16T11:26:24.747Z,1.6
2016-12-16T11:27:25.312Z,1.54
2016-12-16T11:28:25.274Z,1.66
2016-12-16T11:29:25.225Z,1.65
2016-12-16T11:30:25.187Z,1.7
2016-12-16T11:31:25.143Z,1.68
2016-12-16T11:32:25.103Z,1.77
2016-12-16T11:33:24.752Z,1.8
2016-12-16T11:34:25.015Z,1.98
2016-12-16T11:35:24.972Z,1.86
2016-12-16T11:36:24.928Z,1.79
2016-12-16T11:37:24.890Z,1.8
2016-12-16T11:38:24.552Z,1.81
2016-12-16T11:39:24.803Z,1.77
2016-12-16T11:40:24.769Z,1.84
2016-12-16T11:41:24.721Z,1.81
2016-12-16T11:42:24.676Z,1.8
2016-12-16T11:43:24.339Z,1.83
2016-12-16T11:44:24.294Z,1.87
2016-12-16T11:45:24.552Z,1.99
2016-12-16T11:46:24.525Z,1.91
2016-12-16T11:47:24.465Z,2.1
2016-12-16T11:48:24.133Z,2.18
2016-12-16T11:49:24.385Z,2.18
2016-12-16T11:50:24.351Z,2.3
2016-12-16T11:51:24.013Z,2.27
2016-12-16T11:52:24.261Z,2.41
2016-12-16T11:53:24.222Z,2.3
2016-12-16T11:54:24.176Z,2.38
2016-12-16T11:55:24.161Z,2.36
2016-12-16T11:56:23.791Z,2.34
2016-12-16T11:57:24.059Z,2.31
2016-12-16T11:58:24.010Z,2.35
2016-12-16T11:59:23.671Z,2.43
2016-12-16T12:00:23.925Z,2.57
2016-12-16T12:01:23.887Z,2.56
2016-12-16T12:02:23.842Z,2.59
2016-12-16T12:03:23.804Z,2.61
2016-12-16T12:04:23.460Z,2.66
2016-12-16T12:05:23.118Z,2.72
2016-12-16T12:06:23.679Z,2.6
2016-12-16T12:07:23.356Z,2.39
2016-12-16T12:08:23.596Z,2.49
2016-12-16T12:09:23.255Z,2.25
2016-12-16T12:10:23.507Z,2.27
2016-12-16T12:11:23.471Z,2.38
2016-12-16T12:12:23.428Z,2.41
2016-12-16T12:13:23.087Z,2.36
2016-12-16T12:14:23.043Z,2.49
2016-12-16T12:15:23.305Z,2.54
2016-12-16T12:16:23.268Z,2.56
2016-12-16T12:17:23.224Z,2.57
2016-12-16T12:18:22.878Z,2.59
2016-12-16T12:19:23.139Z,2.72
2016-12-16T12:20:23.105Z,2.66
2016-12-16T12:21:23.062Z,2.66
2016-12-16T12:22:22.712Z,2.67
2016-12-16T12:23:22.973Z,2.63
2016-12-16T12:24:22.936Z,2.67
2016-12-16T12:25:22.588Z,2.67
2016-12-16T12:26:22.250Z,2.69
2016-12-16T12:27:22.508Z,2.71
2016-12-16T12:28:22.771Z,2.69
2016-12-16T12:29:22.725Z,2.59
2016-12-16T12:30:22.380Z,2.61
2016-12-16T12:31:22.647Z,2.6
2016-12-16T12:32:22.300Z,2.56
2016-12-16T12:33:22.293Z,2.54
2016-12-16T12:34:22.522Z,2.57
2016-12-16T12:35:22.478Z,2.56
2016-12-16T12:36:22.435Z,2.56
2016-12-16T12:37:22.394Z,2.6
2016-12-16T12:38:22.052Z,2.56
2016-12-16T12:39:22.315Z,2.54
2016-12-16T12:40:22.274Z,2.52
2016-12-16T12:41:22.228Z,2.54
2016-12-16T12:42:22.190Z,2.49
2016-12-16T12:43:22.156Z,2.56
2016-12-16T12:44:22.109Z,2.54
2016-12-16T12:45:22.060Z,2.56
2016-12-16T12:46:22.035Z,2.48
2016-12-16T12:47:21.979Z,2.57
2016-12-16T12:48:21.640Z,2.56
2016-12-16T12:49:21.898Z,2.41
2016-12-16T12:50:21.859Z,2.3
2016-12-16T12:51:21.818Z,2.09
2016-12-16T12:52:21.474Z,2.02
2016-12-16T12:53:21.736Z,2.07
2016-12-16T12:54:21.392Z,2.03
2016-12-16T12:55:21.064Z,2.1
2016-12-16T12:56:21.309Z,2.18
2016-12-16T12:57:21.569Z,2.36
2016-12-16T12:58:21.528Z,2.35
2016-12-16T12:59:21.484Z,2.31
2016-12-16T13:00:21.448Z,2.34
2016-12-16T13:01:21.109Z,2.42
2016-12-16T13:02:21.090Z,2.43
2016-12-16T13:03:21.021Z,2.42
2016-12-16T13:04:21.287Z,2.46
2016-12-16T13:05:20.936Z,2.49
2016-12-16T13:06:21.196Z,2.49
2016-12-16T13:07:20.856Z,2.39
2016-12-16T13:08:21.119Z,2.49
2016-12-16T13:09:21.077Z,2.42
2016-12-16T13:10:20.733Z,2.53